sensor_id;sensor_type;location;lat;lon;timestamp;pressure;altitude;pressure_sealevel;temperature;humidity
66762;BME280;53672;48.176;16.338;2023-03-17T00:02:09;99737.72;;;1.37;52.14
66762;BME280;53672;48.176;16.338;2023-03-17T00:07:13;99734.69;;;1.40;52.35
66762;BME280;53672;48.176;16.338;2023-03-17T00:12:16;99728.13;;;1.43;52.26
66762;BME280;53672;48.176;16.338;2023-03-17T00:17:18;99727.31;;;1.36;52.66
66762;BME280;53672;48.176;16.338;2023-03-17T00:22:18;99726.28;;;1.30;53.34
66762;BME280;53672;48.176;16.338;2023-03-17T00:27:19;99708.13;;;1.14;53.59
66762;BME280;53672;48.176;16.338;2023-03-17T00:32:21;99717.53;;;1.03;53.86
66762;BME280;53672;48.176;16.338;2023-03-17T00:37:21;99703.44;;;0.83;54.42
66762;BME280;53672;48.176;16.338;2023-03-17T00:42:22;99699.19;;;0.89;55.10
66762;BME280;53672;48.176;16.338;2023-03-17T00:47:24;99689.53;;;1.21;53.54
66762;BME280;53672;48.176;16.338;2023-03-17T00:52:24;99681.22;;;1.88;51.16
66762;BME280;53672;48.176;16.338;2023-03-17T00:57:25;99680.94;;;2.02;50.32
66762;BME280;53672;48.176;16.338;2023-03-17T01:02:27;99667.13;;;2.25;49.61
66762;BME280;53672;48.176;16.338;2023-03-17T01:07:27;99641.22;;;2.45;48.81
66762;BME280;53672;48.176;16.338;2023-03-17T01:12:28;99638.66;;;2.57;48.75
66762;BME280;53672;48.176;16.338;2023-03-17T01:17:30;99627.72;;;2.72;47.74
66762;BME280;53672;48.176;16.338;2023-03-17T01:22:30;99630.66;;;2.64;48.59
66762;BME280;53672;48.176;16.338;2023-03-17T01:27:33;99620.91;;;2.20;49.89
66762;BME280;53672;48.176;16.338;2023-03-17T01:32:35;99623.75;;;1.93;50.87
66762;BME280;53672;48.176;16.338;2023-03-17T01:37:36;99602.34;;;1.75;51.60
66762;BME280;53672;48.176;16.338;2023-03-17T01:42:37;99601.41;;;2.01;50.99
66762;BME280;53672;48.176;16.338;2023-03-17T01:47:39;99606.50;;;2.02;50.93
66762;BME280;53672;48.176;16.338;2023-03-17T01:52:40;99599.97;;;1.67;52.36
66762;BME280;53672;48.176;16.338;2023-03-17T01:57:43;99591.84;;;1.49;52.64
66762;BME280;53672;48.176;16.338;2023-03-17T02:02:48;99584.56;;;1.31;53.88
66762;BME280;53672;48.176;16.338;2023-03-17T02:07:50;99582.97;;;1.17;54.14
66762;BME280;53672;48.176;16.338;2023-03-17T02:12:52;99587.50;;;0.97;55.49
66762;BME280;53672;48.176;16.338;2023-03-17T02:17:55;99589.56;;;1.01;55.34
66762;BME280;53672;48.176;16.338;2023-03-17T02:22:57;99575.25;;;1.02;55.48
66762;BME280;53672;48.176;16.338;2023-03-17T02:28:01;99573.13;;;1.31;54.03
66762;BME280;53672;48.176;16.338;2023-03-17T02:33:06;99570.53;;;1.62;53.33
66762;BME280;53672;48.176;16.338;2023-03-17T02:38:08;99577.63;;;1.75;52.72
66762;BME280;53672;48.176;16.338;2023-03-17T02:43:08;99569.56;;;1.94;52.20
66762;BME280;53672;48.176;16.338;2023-03-17T02:48:09;99567.25;;;2.04;51.80
66762;BME280;53672;48.176;16.338;2023-03-17T02:53:11;99557.09;;;2.20;51.35
66762;BME280;53672;48.176;16.338;2023-03-17T02:58:11;99564.06;;;2.21;50.89
66762;BME280;53672;48.176;16.338;2023-03-17T03:03:12;99573.84;;;2.27;51.56
66762;BME280;53672;48.176;16.338;2023-03-17T03:08:14;99581.59;;;2.28;51.61
66762;BME280;53672;48.176;16.338;2023-03-17T03:13:14;99569.34;;;2.27;51.59
66762;BME280;53672;48.176;16.338;2023-03-17T03:18:15;99568.06;;;2.30;51.85
66762;BME280;53672;48.176;16.338;2023-03-17T03:23:17;99559.47;;;2.34;51.39
66762;BME280;53672;48.176;16.338;2023-03-17T03:28:17;99559.69;;;2.33;51.63
66762;BME280;53672;48.176;16.338;2023-03-17T03:33:18;99541.34;;;2.25;52.36
66762;BME280;53672;48.176;16.338;2023-03-17T03:38:20;99551.16;;;2.24;52.42
66762;BME280;53672;48.176;16.338;2023-03-17T03:43:20;99547.72;;;2.17;52.53
66762;BME280;53672;48.176;16.338;2023-03-17T03:48:21;99528.09;;;2.18;52.13
66762;BME280;53672;48.176;16.338;2023-03-17T03:53:23;99537.31;;;2.16;52.01
66762;BME280;53672;48.176;16.338;2023-03-17T03:58:24;99530.09;;;2.23;51.58
66762;BME280;53672;48.176;16.338;2023-03-17T04:03:24;99539.06;;;2.28;51.27
66762;BME280;53672;48.176;16.338;2023-03-17T04:08:26;99532.53;;;2.24;51.65
66762;BME280;53672;48.176;16.338;2023-03-17T04:13:27;99528.91;;;2.19;51.52
66762;BME280;53672;48.176;16.338;2023-03-17T04:18:27;99546.75;;;2.12;51.75
66762;BME280;53672;48.176;16.338;2023-03-17T04:23:29;99526.31;;;2.05;51.91
66762;BME280;53672;48.176;16.338;2023-03-17T04:28:30;99516.31;;;2.08;51.87
66762;BME280;53672;48.176;16.338;2023-03-17T04:33:30;99522.88;;;2.05;52.14
66762;BME280;53672;48.176;16.338;2023-03-17T04:38:32;99527.59;;;2.03;51.98
66762;BME280;53672;48.176;16.338;2023-03-17T04:43:33;99514.53;;;2.01;52.13
66762;BME280;53672;48.176;16.338;2023-03-17T04:48:33;99513.81;;;2.13;51.40
66762;BME280;53672;48.176;16.338;2023-03-17T04:53:35;99504.81;;;2.14;51.35
66762;BME280;53672;48.176;16.338;2023-03-17T04:58:36;99507.69;;;2.12;51.39
66762;BME280;53672;48.176;16.338;2023-03-17T05:03:37;99510.31;;;2.19;51.28
66762;BME280;53672;48.176;16.338;2023-03-17T05:08:39;99514.91;;;2.30;50.78
66762;BME280;53672;48.176;16.338;2023-03-17T05:13:40;99512.78;;;2.38;50.08
66762;BME280;53672;48.176;16.338;2023-03-17T05:18:40;99512.72;;;2.45;50.10
66762;BME280;53672;48.176;16.338;2023-03-17T05:23:42;99508.97;;;2.52;49.65
66762;BME280;53672;48.176;16.338;2023-03-17T05:28:43;99512.97;;;2.62;49.46
66762;BME280;53672;48.176;16.338;2023-03-17T05:33:44;99521.97;;;2.61;49.79
66762;BME280;53672;48.176;16.338;2023-03-17T05:38:45;99524.81;;;2.66;49.74
66762;BME280;53672;48.176;16.338;2023-03-17T05:43:46;99516.50;;;2.80;49.08
66762;BME280;53672;48.176;16.338;2023-03-17T05:48:46;99519.59;;;2.95;49.08
66762;BME280;53672;48.176;16.338;2023-03-17T05:53:48;99518.66;;;3.08;48.96
66762;BME280;53672;48.176;16.338;2023-03-17T05:58:49;99513.25;;;3.15;48.73
66762;BME280;53672;48.176;16.338;2023-03-17T06:03:50;99509.66;;;3.39;48.32
66762;BME280;53672;48.176;16.338;2023-03-17T06:08:52;99524.75;;;3.45;47.88
66762;BME280;53672;48.176;16.338;2023-03-17T06:13:52;99513.91;;;3.58;47.76
66762;BME280;53672;48.176;16.338;2023-03-17T06:18:53;99502.16;;;3.77;46.90
66762;BME280;53672;48.176;16.338;2023-03-17T06:23:55;99514.50;;;3.60;47.32
66762;BME280;53672;48.176;16.338;2023-03-17T06:28:55;99514.91;;;3.75;48.15
66762;BME280;53672;48.176;16.338;2023-03-17T06:33:56;99511.31;;;4.23;46.27
66762;BME280;53672;48.176;16.338;2023-03-17T06:38:58;99514.59;;;4.48;45.21
66762;BME280;53672;48.176;16.338;2023-03-17T06:43:59;99503.44;;;4.63;44.34
66762;BME280;53672;48.176;16.338;2023-03-17T06:48:59;99510.28;;;4.93;43.96
66762;BME280;53672;48.176;16.338;2023-03-17T06:54:01;99517.38;;;4.99;43.35
66762;BME280;53672;48.176;16.338;2023-03-17T06:59:02;99514.25;;;5.42;42.36
66762;BME280;53672;48.176;16.338;2023-03-17T07:04:02;99518.72;;;5.93;40.93
66762;BME280;53672;48.176;16.338;2023-03-17T07:09:04;99508.44;;;6.02;40.42
66762;BME280;53672;48.176;16.338;2023-03-17T07:14:05;99511.28;;;6.45;39.81
66762;BME280;53672;48.176;16.338;2023-03-17T07:19:05;99522.66;;;6.36;39.96
66762;BME280;53672;48.176;16.338;2023-03-17T07:24:09;99520.38;;;6.44;40.03
66762;BME280;53672;48.176;16.338;2023-03-17T07:29:10;99525.56;;;6.84;39.71
66762;BME280;53672;48.176;16.338;2023-03-17T07:34:11;99514.84;;;7.06;38.97
66762;BME280;53672;48.176;16.338;2023-03-17T07:39:13;99516.00;;;7.32;38.04
66762;BME280;53672;48.176;16.338;2023-03-17T07:44:13;99504.81;;;7.40;37.99
66762;BME280;53672;48.176;16.338;2023-03-17T07:49:14;99498.72;;;7.71;37.37
66762;BME280;53672;48.176;16.338;2023-03-17T07:54:15;99508.81;;;7.86;37.37
66762;BME280;53672;48.176;16.338;2023-03-17T07:59:16;99490.44;;;7.99;36.87
66762;BME280;53672;48.176;16.338;2023-03-17T08:04:16;99494.47;;;8.02;36.61
66762;BME280;53672;48.176;16.338;2023-03-17T08:09:18;99486.00;;;8.42;35.58
66762;BME280;53672;48.176;16.338;2023-03-17T08:14:19;99486.16;;;9.14;34.30
66762;BME280;53672;48.176;16.338;2023-03-17T08:19:20;99482.97;;;9.22;33.62
66762;BME280;53672;48.176;16.338;2023-03-17T08:24:21;99488.69;;;9.46;32.82
66762;BME280;53672;48.176;16.338;2023-03-17T08:29:22;99476.91;;;9.52;32.27
66762;BME280;53672;48.176;16.338;2023-03-17T08:34:23;99481.72;;;9.45;31.89
66762;BME280;53672;48.176;16.338;2023-03-17T08:39:25;99491.59;;;10.27;30.81
66762;BME280;53672;48.176;16.338;2023-03-17T08:44:25;99479.44;;;10.14;31.04
66762;BME280;53672;48.176;16.338;2023-03-17T08:49:26;99483.38;;;11.66;29.24
66762;BME280;53672;48.176;16.338;2023-03-17T08:54:28;99480.09;;;12.52;28.91
66762;BME280;53672;48.176;16.338;2023-03-17T08:59:28;99489.91;;;10.91;31.13
66762;BME280;53672;48.176;16.338;2023-03-17T09:04:29;99466.00;;;10.29;32.08
66762;BME280;53672;48.176;16.338;2023-03-17T09:09:31;99481.88;;;10.46;32.14
66762;BME280;53672;48.176;16.338;2023-03-17T09:14:32;99481.59;;;10.57;31.42
66762;BME280;53672;48.176;16.338;2023-03-17T09:19:33;99491.84;;;10.45;32.18
66762;BME280;53672;48.176;16.338;2023-03-17T09:24:35;99505.03;;;11.51;30.60
66762;BME280;53672;48.176;16.338;2023-03-17T09:29:35;99503.03;;;11.13;30.95
66762;BME280;53672;48.176;16.338;2023-03-17T09:34:36;99490.34;;;11.18;30.94
66762;BME280;53672;48.176;16.338;2023-03-17T09:39:39;99501.00;;;11.54;29.17
66762;BME280;53672;48.176;16.338;2023-03-17T09:44:50;99481.00;;;11.60;29.55
66762;BME280;53672;48.176;16.338;2023-03-17T09:49:58;99473.50;;;11.47;29.29
66762;BME280;53672;48.176;16.338;2023-03-17T09:55:02;99471.34;;;10.75;29.95
66762;BME280;53672;48.176;16.338;2023-03-17T10:00:11;99466.94;;;11.58;27.96
66762;BME280;53672;48.176;16.338;2023-03-17T10:05:19;99469.41;;;11.54;28.21
66762;BME280;53672;48.176;16.338;2023-03-17T10:10:25;99448.97;;;14.06;24.66
66762;BME280;53672;48.176;16.338;2023-03-17T10:15:32;99441.00;;;11.62;27.19
66762;BME280;53672;48.176;16.338;2023-03-17T10:20:37;99436.66;;;12.10;26.45
66762;BME280;53672;48.176;16.338;2023-03-17T10:25:41;99462.06;;;12.95;24.92
66762;BME280;53672;48.176;16.338;2023-03-17T10:30:41;99454.41;;;15.39;22.50
66762;BME280;53672;48.176;16.338;2023-03-17T10:35:42;99450.16;;;14.51;23.28
66762;BME280;53672;48.176;16.338;2023-03-17T10:40:45;99440.63;;;14.02;23.10
66762;BME280;53672;48.176;16.338;2023-03-17T10:45:56;99453.22;;;15.94;21.03
66762;BME280;53672;48.176;16.338;2023-03-17T10:50:57;99425.56;;;13.40;23.94
66762;BME280;53672;48.176;16.338;2023-03-17T10:56:07;99438.25;;;17.11;19.47
66762;BME280;53672;48.176;16.338;2023-03-17T11:01:16;99435.56;;;17.37;19.74
66762;BME280;53672;48.176;16.338;2023-03-17T11:06:30;99415.63;;;14.05;23.17
66762;BME280;53672;48.176;16.338;2023-03-17T11:11:33;99423.47;;;15.76;21.58
66762;BME280;53672;48.176;16.338;2023-03-17T11:16:49;99409.97;;;16.90;20.16
66762;BME280;53672;48.176;16.338;2023-03-17T11:21:54;99439.66;;;18.34;19.11
66762;BME280;53672;48.176;16.338;2023-03-17T11:27:01;99417.28;;;19.34;17.92
66762;BME280;53672;48.176;16.338;2023-03-17T11:32:20;99399.97;;;18.37;18.10
66762;BME280;53672;48.176;16.338;2023-03-17T11:37:34;99417.66;;;18.94;17.69
66762;BME280;53672;48.176;16.338;2023-03-17T11:42:48;99412.97;;;16.49;19.49
66762;BME280;53672;48.176;16.338;2023-03-17T11:48:19;99391.31;;;15.91;19.91
66762;BME280;53672;48.176;16.338;2023-03-17T11:58:51;99370.09;;;14.67;21.83
66762;BME280;53672;48.176;16.338;2023-03-17T12:04:08;99345.63;;;13.61;23.17
66762;BME280;53672;48.176;16.338;2023-03-17T12:09:19;99347.56;;;13.00;23.99
66762;BME280;53672;48.176;16.338;2023-03-17T12:14:27;99349.44;;;12.81;24.25
66762;BME280;53672;48.176;16.338;2023-03-17T12:19:34;99325.84;;;13.29;23.60
66762;BME280;53672;48.176;16.338;2023-03-17T12:24:38;99327.91;;;12.70;24.35
66762;BME280;53672;48.176;16.338;2023-03-17T12:29:45;99321.16;;;12.26;24.84
66762;BME280;53672;48.176;16.338;2023-03-17T12:34:49;99318.38;;;13.20;24.45
66762;BME280;53672;48.176;16.338;2023-03-17T12:39:54;99313.56;;;12.28;25.20
66762;BME280;53672;48.176;16.338;2023-03-17T12:45:17;99309.09;;;12.84;24.61
66762;BME280;53672;48.176;16.338;2023-03-17T12:50:43;99293.59;;;12.90;24.27
66762;BME280;53672;48.176;16.338;2023-03-17T12:55:50;99293.59;;;12.90;24.27
66762;BME280;53672;48.176;16.338;2023-03-17T13:01:03;99299.72;;;12.95;24.17
66762;BME280;53672;48.176;16.338;2023-03-17T13:06:06;99268.66;;;12.93;23.91
66762;BME280;53672;48.176;16.338;2023-03-17T13:11:16;99258.22;;;12.86;24.00
66762;BME280;53672;48.176;16.338;2023-03-17T13:16:37;99258.41;;;13.08;23.82
66762;BME280;53672;48.176;16.338;2023-03-17T13:21:43;99253.22;;;12.56;24.45
66762;BME280;53672;48.176;16.338;2023-03-17T13:26:55;99256.50;;;12.71;24.33
66762;BME280;53672;48.176;16.338;2023-03-17T13:37:48;99254.47;;;12.82;23.69
66762;BME280;53672;48.176;16.338;2023-03-17T13:43:05;99235.59;;;12.96;23.73
66762;BME280;53672;48.176;16.338;2023-03-17T13:48:29;99258.41;;;13.08;23.36
66762;BME280;53672;48.176;16.338;2023-03-17T13:53:35;99225.78;;;12.44;23.91
66762;BME280;53672;48.176;16.338;2023-03-17T13:58:50;99243.78;;;12.30;23.72
66762;BME280;53672;48.176;16.338;2023-03-17T14:03:54;99218.56;;;12.39;23.77
66762;BME280;53672;48.176;16.338;2023-03-17T14:08:59;99223.25;;;12.71;23.62
66762;BME280;53672;48.176;16.338;2023-03-17T14:14:13;99207.84;;;12.90;23.50
66762;BME280;53672;48.176;16.338;2023-03-17T14:19:19;99200.75;;;12.76;23.41
66762;BME280;53672;48.176;16.338;2023-03-17T14:24:23;99215.81;;;13.00;23.68
66762;BME280;53672;48.176;16.338;2023-03-17T14:29:27;99198.19;;;12.65;23.79
66762;BME280;53672;48.176;16.338;2023-03-17T14:34:28;99198.16;;;12.47;23.72
66762;BME280;53672;48.176;16.338;2023-03-17T14:39:30;99207.31;;;12.51;23.62
66762;BME280;53672;48.176;16.338;2023-03-17T14:44:35;99191.16;;;12.46;23.51
66762;BME280;53672;48.176;16.338;2023-03-17T14:49:36;99172.13;;;12.13;24.19
66762;BME280;53672;48.176;16.338;2023-03-17T14:54:38;99180.63;;;12.26;24.21
66762;BME280;53672;48.176;16.338;2023-03-17T14:59:40;99169.72;;;12.12;24.07
66762;BME280;53672;48.176;16.338;2023-03-17T15:04:49;99199.22;;;12.08;24.59
66762;BME280;53672;48.176;16.338;2023-03-17T15:09:58;99183.03;;;12.03;24.60
66762;BME280;53672;48.176;16.338;2023-03-17T15:15:02;99179.63;;;11.98;24.62
66762;BME280;53672;48.176;16.338;2023-03-17T15:20:06;99157.25;;;11.92;24.69
66762;BME280;53672;48.176;16.338;2023-03-17T15:25:19;99160.34;;;11.81;24.71
66762;BME280;53672;48.176;16.338;2023-03-17T15:30:22;99154.19;;;11.75;24.61
66762;BME280;53672;48.176;16.338;2023-03-17T15:35:23;99148.38;;;11.63;25.06
66762;BME280;53672;48.176;16.338;2023-03-17T15:40:24;99145.69;;;11.63;25.08
66762;BME280;53672;48.176;16.338;2023-03-17T15:45:25;99138.59;;;11.43;25.25
66762;BME280;53672;48.176;16.338;2023-03-17T15:50:28;99130.84;;;11.37;25.42
66762;BME280;53672;48.176;16.338;2023-03-17T15:55:31;99154.59;;;11.35;25.73
66762;BME280;53672;48.176;16.338;2023-03-17T16:00:31;99147.50;;;11.15;25.63
66762;BME280;53672;48.176;16.338;2023-03-17T16:05:33;99142.53;;;10.98;25.79
66762;BME280;53672;48.176;16.338;2023-03-17T16:10:36;99115.09;;;10.86;25.98
66762;BME280;53672;48.176;16.338;2023-03-17T16:15:38;99125.41;;;10.79;26.12
66762;BME280;53672;48.176;16.338;2023-03-17T16:20:40;99124.13;;;10.72;26.42
66762;BME280;53672;48.176;16.338;2023-03-17T16:25:43;99137.69;;;10.61;26.55
66762;BME280;53672;48.176;16.338;2023-03-17T16:30:44;99131.81;;;10.49;26.89
66762;BME280;53672;48.176;16.338;2023-03-17T16:35:45;99125.69;;;10.39;27.35
66762;BME280;53672;48.176;16.338;2023-03-17T16:40:49;99136.03;;;10.22;27.55
66762;BME280;53672;48.176;16.338;2023-03-17T16:45:53;99143.09;;;10.02;28.35
66762;BME280;53672;48.176;16.338;2023-03-17T16:50:56;99159.31;;;9.87;29.00
66762;BME280;53672;48.176;16.338;2023-03-17T16:55:58;99153.13;;;9.82;28.77
66762;BME280;53672;48.176;16.338;2023-03-17T17:01:01;99164.50;;;9.68;28.95
66762;BME280;53672;48.176;16.338;2023-03-17T17:06:03;99159.13;;;9.53;29.68
66762;BME280;53672;48.176;16.338;2023-03-17T17:11:06;99168.84;;;9.44;30.16
66762;BME280;53672;48.176;16.338;2023-03-17T17:16:15;99164.81;;;9.32;30.51
66762;BME280;53672;48.176;16.338;2023-03-17T17:21:16;99180.97;;;9.27;30.42
66762;BME280;53672;48.176;16.338;2023-03-17T17:26:22;99169.41;;;9.16;30.34
66762;BME280;53672;48.176;16.338;2023-03-17T17:31:23;99167.53;;;9.06;30.73
66762;BME280;53672;48.176;16.338;2023-03-17T17:36:24;99168.09;;;9.03;30.58
66762;BME280;53672;48.176;16.338;2023-03-17T17:41:27;99158.13;;;8.94;31.02
66762;BME280;53672;48.176;16.338;2023-03-17T17:46:28;99154.09;;;8.86;31.15
66762;BME280;53672;48.176;16.338;2023-03-17T17:51:29;99146.03;;;8.76;31.40
66762;BME280;53672;48.176;16.338;2023-03-17T17:56:31;99156.78;;;8.66;32.07
66762;BME280;53672;48.176;16.338;2023-03-17T18:01:32;99134.19;;;8.62;32.45
66762;BME280;53672;48.176;16.338;2023-03-17T18:06:33;99143.34;;;8.56;32.69
66762;BME280;53672;48.176;16.338;2023-03-17T18:11:35;99136.06;;;8.51;33.02
66762;BME280;53672;48.176;16.338;2023-03-17T18:16:37;99146.78;;;8.41;33.30
66762;BME280;53672;48.176;16.338;2023-03-17T18:21:37;99147.31;;;8.33;33.59
66762;BME280;53672;48.176;16.338;2023-03-17T18:26:42;99151.59;;;8.29;33.68
66762;BME280;53672;48.176;16.338;2023-03-17T18:31:45;99159.31;;;8.21;34.05
66762;BME280;53672;48.176;16.338;2023-03-17T18:36:47;99147.50;;;8.16;34.29
66762;BME280;53672;48.176;16.338;2023-03-17T18:41:53;99130.81;;;8.09;34.61
66762;BME280;53672;48.176;16.338;2023-03-17T18:46:54;99128.41;;;8.03;34.45
66762;BME280;53672;48.176;16.338;2023-03-17T18:51:56;99134.25;;;7.95;34.87
66762;BME280;53672;48.176;16.338;2023-03-17T18:56:58;99133.69;;;7.83;35.37
66762;BME280;53672;48.176;16.338;2023-03-17T19:01:59;99134.16;;;7.70;36.00
66762;BME280;53672;48.176;16.338;2023-03-17T19:07:01;99149.13;;;7.60;36.19
66762;BME280;53672;48.176;16.338;2023-03-17T19:12:07;99125.78;;;7.56;36.66
66762;BME280;53672;48.176;16.338;2023-03-17T19:17:08;99126.78;;;7.45;36.97
66762;BME280;53672;48.176;16.338;2023-03-17T19:22:09;99128.13;;;7.42;37.00
66762;BME280;53672;48.176;16.338;2023-03-17T19:27:12;99124.31;;;7.33;37.50
66762;BME280;53672;48.176;16.338;2023-03-17T19:32:13;99129.38;;;7.25;38.01
66762;BME280;53672;48.176;16.338;2023-03-17T19:37:14;99125.84;;;7.19;38.06
66762;BME280;53672;48.176;16.338;2023-03-17T19:42:17;99126.31;;;7.11;38.30
66762;BME280;53672;48.176;16.338;2023-03-17T19:47:18;99126.56;;;7.09;38.36
66762;BME280;53672;48.176;16.338;2023-03-17T19:52:19;99127.59;;;7.03;38.41
66762;BME280;53672;48.176;16.338;2023-03-17T19:57:22;99112.00;;;6.95;38.65
66762;BME280;53672;48.176;16.338;2023-03-17T20:02:24;99109.28;;;6.90;39.07
66762;BME280;53672;48.176;16.338;2023-03-17T20:07:25;99118.38;;;6.84;39.32
66762;BME280;53672;48.176;16.338;2023-03-17T20:12:31;99109.97;;;6.76;39.47
66762;BME280;53672;48.176;16.338;2023-03-17T20:17:33;99117.19;;;6.70;39.59
66762;BME280;53672;48.176;16.338;2023-03-17T20:22:35;99123.81;;;6.62;39.84
66762;BME280;53672;48.176;16.338;2023-03-17T20:27:38;99103.94;;;6.58;39.68
66762;BME280;53672;48.176;16.338;2023-03-17T20:32:39;99115.91;;;6.51;40.00
66762;BME280;53672;48.176;16.338;2023-03-17T20:37:40;99110.53;;;6.46;40.59
66762;BME280;53672;48.176;16.338;2023-03-17T20:42:43;99113.44;;;6.44;40.29
66762;BME280;53672;48.176;16.338;2023-03-17T20:47:45;99111.25;;;6.36;41.28
66762;BME280;53672;48.176;16.338;2023-03-17T20:52:46;99106.72;;;6.37;41.24
66762;BME280;53672;48.176;16.338;2023-03-17T20:57:48;99098.09;;;6.35;41.61
66762;BME280;53672;48.176;16.338;2023-03-17T21:02:49;99099.66;;;6.31;41.74
66762;BME280;53672;48.176;16.338;2023-03-17T21:07:51;99092.41;;;6.26;41.77
66762;BME280;53672;48.176;16.338;2023-03-17T21:12:53;99089.44;;;6.23;41.85
66762;BME280;53672;48.176;16.338;2023-03-17T21:17:54;99095.53;;;6.18;41.99
66762;BME280;53672;48.176;16.338;2023-03-17T21:22:55;99088.56;;;6.17;42.58
66762;BME280;53672;48.176;16.338;2023-03-17T21:27:57;99081.03;;;6.14;42.78
66762;BME280;53672;48.176;16.338;2023-03-17T21:32:58;99072.41;;;6.07;42.98
66762;BME280;53672;48.176;16.338;2023-03-17T21:37:59;99065.72;;;6.04;43.00
66762;BME280;53672;48.176;16.338;2023-03-17T21:43:01;99072.38;;;6.02;43.62
66762;BME280;53672;48.176;16.338;2023-03-17T21:48:02;99071.25;;;5.98;43.62
66762;BME280;53672;48.176;16.338;2023-03-17T21:53:03;99062.38;;;5.92;43.55
66762;BME280;53672;48.176;16.338;2023-03-17T21:58:04;99072.44;;;5.85;44.06
66762;BME280;53672;48.176;16.338;2023-03-17T22:03:05;99061.97;;;5.84;44.07
66762;BME280;53672;48.176;16.338;2023-03-17T22:08:05;99074.72;;;5.77;43.96
66762;BME280;53672;48.176;16.338;2023-03-17T22:13:07;99059.75;;;5.76;44.26
66762;BME280;53672;48.176;16.338;2023-03-17T22:18:08;99058.06;;;5.70;43.96
66762;BME280;53672;48.176;16.338;2023-03-17T22:23:08;99049.19;;;5.64;44.50
66762;BME280;53672;48.176;16.338;2023-03-17T22:28:10;99060.41;;;5.61;44.58
66762;BME280;53672;48.176;16.338;2023-03-17T22:33:11;99059.28;;;5.57;44.89
66762;BME280;53672;48.176;16.338;2023-03-17T22:38:12;99055.25;;;5.54;44.46
66762;BME280;53672;48.176;16.338;2023-03-17T22:43:14;99073.06;;;5.49;44.63
66762;BME280;53672;48.176;16.338;2023-03-17T22:48:14;99057.03;;;5.49;44.48
66762;BME280;53672;48.176;16.338;2023-03-17T22:53:15;99056.16;;;5.43;44.81
66762;BME280;53672;48.176;16.338;2023-03-17T22:58:17;99042.19;;;5.36;44.85
66762;BME280;53672;48.176;16.338;2023-03-17T23:03:17;99056.22;;;5.27;44.82
66762;BME280;53672;48.176;16.338;2023-03-17T23:08:19;99049.75;;;5.23;44.86
66762;BME280;53672;48.176;16.338;2023-03-17T23:13:21;99034.16;;;5.15;45.26
66762;BME280;53672;48.176;16.338;2023-03-17T23:18:22;99062.41;;;5.10;45.12
66762;BME280;53672;48.176;16.338;2023-03-17T23:23:23;99056.50;;;5.08;44.75
66762;BME280;53672;48.176;16.338;2023-03-17T23:28:25;99046.81;;;5.02;44.86
66762;BME280;53672;48.176;16.338;2023-03-17T23:33:25;99045.47;;;5.00;45.20
66762;BME280;53672;48.176;16.338;2023-03-17T23:38:26;99054.44;;;4.94;45.21
66762;BME280;53672;48.176;16.338;2023-03-17T23:43:28;99050.38;;;4.91;45.33
66762;BME280;53672;48.176;16.338;2023-03-17T23:48:29;99037.44;;;4.83;45.27
66762;BME280;53672;48.176;16.338;2023-03-17T23:53:29;99037.63;;;4.77;45.66
66762;BME280;53672;48.176;16.338;2023-03-17T23:58:32;99042.00;;;4.66;46.34
